createdAt,value
2019-03-03T00:02:26.097Z,9.69
2019-03-03T00:04:54.505Z,9.64
2019-03-03T00:07:42.147Z,9.79
2019-03-03T00:10:50.470Z,9.69
2019-03-03T00:13:38.116Z,9.68
2019-03-03T00:16:06.526Z,9.72
2019-03-03T00:18:54.167Z,9.66
2019-03-03T00:21:41.825Z,9.58
2019-03-03T00:24:29.577Z,9.76
2019-03-03T00:26:57.972Z,9.60
2019-03-03T00:29:26.377Z,9.62
2019-03-03T00:31:54.786Z,9.70
2019-03-03T00:34:23.181Z,9.74
2019-03-03T00:37:10.706Z,9.65
2019-03-03T00:40:17.492Z,9.71
2019-03-03T00:43:05.006Z,9.82
2019-03-03T00:51:06.978Z,9.85
2019-03-03T00:53:54.497Z,9.81
2019-03-03T00:59:17.363Z,9.86
2019-03-03T01:04:43.884Z,9.84
2019-03-03T01:07:31.411Z,9.87
2019-03-03T01:10:18.931Z,9.97
2019-03-03T01:13:25.709Z,10.09
2019-03-03T01:16:13.225Z,10.26
2019-03-03T01:22:09.096Z,10.11
2019-03-03T01:24:56.612Z,9.96
2019-03-03T01:32:53.477Z,9.96
2019-03-03T01:35:21.872Z,9.91
2019-03-03T01:38:09.651Z,10.01
2019-03-03T01:40:57.178Z,10.05
2019-03-03T01:43:44.694Z,10.06
2019-03-03T01:48:47.100Z,10.05
2019-03-03T01:51:15.504Z,10.01
2019-03-03T01:53:43.966Z,10.06
2019-03-03T01:56:31.714Z,10.05
2019-03-03T01:59:19.224Z,10.08
2019-03-03T02:01:47.638Z,9.92
2019-03-03T02:07:22.724Z,10.16
2019-03-03T02:18:08.693Z,10.08
2019-03-03T02:24:25.077Z,10.04
2019-03-03T02:26:53.480Z,9.99
2019-03-03T02:29:41.125Z,10.13
2019-03-03T02:32:28.730Z,10.15
2019-03-03T02:35:16.372Z,10.21
2019-03-03T02:38:24.684Z,10.12
2019-03-03T02:44:20.454Z,10.04
2019-03-03T02:46:48.837Z,10.07
2019-03-03T02:52:11.037Z,10.10
2019-03-03T02:54:39.436Z,10.23
2019-03-03T02:57:27.180Z,10.08
2019-03-03T03:00:14.696Z,10.05
2019-03-03T03:06:02.012Z,10.00
2019-03-03T03:11:28.265Z,9.90
2019-03-03T03:14:35.036Z,9.90
2019-03-03T03:17:22.551Z,10.03
2019-03-03T03:20:10.067Z,9.96
2019-03-03T03:22:57.588Z,9.78
2019-03-03T03:25:45.096Z,9.77
2019-03-03T03:31:27.379Z,10.08
2019-03-03T03:34:14.890Z,10.20
2019-03-03T03:37:02.400Z,10.10
2019-03-03T03:39:49.921Z,10.23
2019-03-03T03:42:37.437Z,10.18
2019-03-03T03:45:45.772Z,10.10
2019-03-03T03:48:33.292Z,10.19
2019-03-03T03:51:20.805Z,10.11
2019-03-03T03:57:02.889Z,10.20
2019-03-03T03:59:50.391Z,10.09
2019-03-03T04:02:57.160Z,10.05
2019-03-03T04:05:44.689Z,10.19
2019-03-03T04:11:26.887Z,10.23
2019-03-03T04:17:09.275Z,10.30
2019-03-03T04:19:56.792Z,10.23
2019-03-03T04:22:44.305Z,10.28
2019-03-03T04:25:31.839Z,10.28
2019-03-03T04:28:19.361Z,10.26
2019-03-03T04:31:06.886Z,10.19
2019-03-03T04:33:54.399Z,10.22
2019-03-03T04:42:09.971Z,10.44
2019-03-03T04:45:18.284Z,10.51
2019-03-03T04:48:05.791Z,10.48
2019-03-03T04:50:53.317Z,10.54
2019-03-03T04:53:40.826Z,10.48
2019-03-03T04:59:07.296Z,10.52
2019-03-03T05:01:54.812Z,10.50
2019-03-03T05:04:42.330Z,10.46
2019-03-03T05:07:29.844Z,10.38
2019-03-03T05:10:17.372Z,10.38
2019-03-03T05:13:04.875Z,10.43
2019-03-03T05:15:52.402Z,10.46
2019-03-03T05:21:29.135Z,10.63
2019-03-03T05:24:16.955Z,10.53
2019-03-03T05:27:04.643Z,10.54
2019-03-03T05:29:33.009Z,10.53
2019-03-03T05:32:20.667Z,10.28
2019-03-03T05:37:36.509Z,10.04
2019-03-03T05:43:05.937Z,10.07
2019-03-03T05:45:53.455Z,10.05
2019-03-03T05:48:40.962Z,9.93
2019-03-03T05:51:28.486Z,9.98
2019-03-03T05:56:44.328Z,9.82
2019-03-03T05:59:12.725Z,9.84
2019-03-03T06:01:41.127Z,9.81
2019-03-03T06:04:28.854Z,9.72
2019-03-03T06:07:16.508Z,9.80
2019-03-03T06:10:04.018Z,9.71
2019-03-03T06:12:51.667Z,9.66
2019-03-03T06:15:39.312Z,9.73
2019-03-03T06:18:26.831Z,9.59
2019-03-03T06:21:14.487Z,9.50
2019-03-03T06:24:01.994Z,9.58
2019-03-03T06:26:30.406Z,9.58
2019-03-03T06:28:58.802Z,9.58
2019-03-03T06:31:46.369Z,9.50
2019-03-03T06:34:14.763Z,9.53
2019-03-03T06:36:43.181Z,9.33
2019-03-03T06:41:59.094Z,9.49
2019-03-03T06:49:48.731Z,9.41
2019-03-03T06:52:36.501Z,9.35
2019-03-03T06:55:44.830Z,9.34
2019-03-03T06:58:13.317Z,9.25
2019-03-03T07:00:41.721Z,9.20
2019-03-03T07:05:43.884Z,9.19
2019-03-03T07:10:46.321Z,9.26
2019-03-03T07:13:34.004Z,9.31
2019-03-03T07:16:02.415Z,9.45
2019-03-03T07:18:50.095Z,9.27
2019-03-03T07:21:18.546Z,9.13
2019-03-03T07:23:46.973Z,9.08
2019-03-03T07:26:34.643Z,9.14
2019-03-03T07:29:03.067Z,9.05
2019-03-03T07:34:18.927Z,9.14
2019-03-03T07:36:47.341Z,9.19
2019-03-03T07:39:55.740Z,9.27
2019-03-03T07:42:24.200Z,9.21
2019-03-03T07:45:11.928Z,9.26
2019-03-03T07:47:40.458Z,9.25
2019-03-03T07:50:48.815Z,9.14
2019-03-03T07:53:17.285Z,9.21
2019-03-03T07:56:04.854Z,9.24
2019-03-03T07:58:33.329Z,9.29
2019-03-03T08:01:21.005Z,9.28
2019-03-03T08:03:49.445Z,9.22
2019-03-03T08:06:17.884Z,9.36
2019-03-03T08:08:46.412Z,9.42
2019-03-03T08:14:02.291Z,9.38
2019-03-03T08:16:50.001Z,9.27
2019-03-03T08:21:52.580Z,9.36
2019-03-03T08:27:14.580Z,9.41
2019-03-03T08:30:02.163Z,9.39
2019-03-03T08:32:49.923Z,9.39
2019-03-03T08:35:37.786Z,9.36
2019-03-03T08:38:25.355Z,9.42
2019-03-03T08:40:53.776Z,9.38
2019-03-03T08:43:41.346Z,9.36
2019-03-03T08:46:28.894Z,9.31
2019-03-03T08:49:35.749Z,9.36
2019-03-03T08:52:23.350Z,9.45
2019-03-03T08:57:46.395Z,9.42
2019-03-03T09:00:54.735Z,9.52
2019-03-03T09:03:42.398Z,9.56
2019-03-03T09:09:19.110Z,9.57
2019-03-03T09:12:06.675Z,9.58
2019-03-03T09:20:45.375Z,9.82
2019-03-03T09:26:22.069Z,9.72
2019-03-03T09:34:43.867Z,9.88
2019-03-03T09:37:50.711Z,9.87
2019-03-03T09:40:38.257Z,9.87
2019-03-03T09:46:14.864Z,10.07
2019-03-03T09:49:21.661Z,10.00
2019-03-03T09:58:12.162Z,10.05
2019-03-03T10:01:19.192Z,10.24
2019-03-03T10:04:06.812Z,10.26
2019-03-03T10:06:54.429Z,10.12
2019-03-03T10:09:42.050Z,10.22
2019-03-03T10:12:29.620Z,10.38
2019-03-03T10:15:17.215Z,10.40
2019-03-03T10:21:13.163Z,10.39
2019-03-03T10:24:00.745Z,10.35
2019-03-03T10:29:23.819Z,10.36
2019-03-03T10:32:11.405Z,10.38
2019-03-03T10:40:42.593Z,10.57
2019-03-03T10:43:30.103Z,10.63
2019-03-03T10:46:17.639Z,10.40
2019-03-03T10:49:05.143Z,10.55
2019-03-03T10:51:52.670Z,10.65
2019-03-03T10:54:59.436Z,10.59
2019-03-03T10:57:46.961Z,10.69
2019-03-03T11:00:55.295Z,10.67
2019-03-03T11:04:03.601Z,10.65
2019-03-03T11:09:47.245Z,10.49
2019-03-03T11:15:18.171Z,10.70
2019-03-03T11:17:59.428Z,10.68
2019-03-03T11:23:36.028Z,10.49
2019-03-03T11:26:44.346Z,10.73
2019-03-03T11:34:59.876Z,10.78
2019-03-03T11:37:47.403Z,10.76
2019-03-03T11:43:42.984Z,10.84
2019-03-03T11:46:30.497Z,10.70
2019-03-03T11:59:58.740Z,10.87
2019-03-03T12:02:53.805Z,10.87
2019-03-03T12:05:35.497Z,10.89
2019-03-03T12:08:23.021Z,10.85
2019-03-03T12:11:29.793Z,11.00
2019-03-03T12:14:17.314Z,11.11
2019-03-03T12:17:04.823Z,11.08
2019-03-03T12:20:11.595Z,10.99
2019-03-03T12:22:59.117Z,10.95
2019-03-03T12:25:46.629Z,10.94
2019-03-03T12:28:34.148Z,10.98
2019-03-03T12:31:21.662Z,10.92
2019-03-03T12:34:28.436Z,10.89
2019-03-03T12:37:15.949Z,10.90
2019-03-03T12:40:03.473Z,11.09
2019-03-03T12:42:50.995Z,11.05
2019-03-03T12:45:38.512Z,11.00
2019-03-03T12:48:26.042Z,11.05
2019-03-03T12:51:13.561Z,11.04
2019-03-03T12:56:36.455Z,10.93
2019-03-03T12:59:44.767Z,10.95
2019-03-03T13:02:51.539Z,10.94
2019-03-03T13:05:39.055Z,11.03
2019-03-03T13:08:26.576Z,11.00
2019-03-03T13:14:03.182Z,11.07
2019-03-03T13:16:50.687Z,10.94
2019-03-03T13:19:38.216Z,10.91
2019-03-03T13:22:25.726Z,11.08
2019-03-03T13:25:32.504Z,11.02
2019-03-03T13:31:09.103Z,11.06
2019-03-03T13:36:50.944Z,11.02
2019-03-03T13:42:43.862Z,11.08
2019-03-03T13:45:52.172Z,11.13
2019-03-03T13:48:20.578Z,10.96
2019-03-03T13:51:08.216Z,10.97
2019-03-03T13:56:24.055Z,11.00
2019-03-03T13:58:52.447Z,10.98
2019-03-03T14:04:15.829Z,11.10
2019-03-03T14:07:03.479Z,11.13
2019-03-03T14:09:31.869Z,11.12
2019-03-03T14:12:19.520Z,11.18
2019-03-03T14:17:22.349Z,11.10
2019-03-03T14:20:30.735Z,11.14
2019-03-03T14:22:59.136Z,11.14
2019-03-03T14:25:46.657Z,11.15
2019-03-03T14:28:15.052Z,11.00
2019-03-03T14:31:02.704Z,11.09
2019-03-03T14:33:50.343Z,11.17
2019-03-03T14:36:37.873Z,11.10
2019-03-03T14:39:46.181Z,11.16
2019-03-03T14:42:33.833Z,11.18
2019-03-03T14:45:21.488Z,11.19
2019-03-03T14:47:49.883Z,11.25
2019-03-03T14:50:58.199Z,11.18
2019-03-03T14:53:26.591Z,11.25
2019-03-03T14:55:54.999Z,11.26
2019-03-03T14:58:23.455Z,11.21
2019-03-03T15:01:11.085Z,11.21
2019-03-03T15:03:58.841Z,11.08
2019-03-03T15:06:27.297Z,11.13
2019-03-03T15:08:55.752Z,11.15
2019-03-03T15:11:43.678Z,11.17
2019-03-03T15:14:12.101Z,11.15
2019-03-03T15:16:40.540Z,11.21
2019-03-03T15:21:56.637Z,11.30
2019-03-03T15:24:25.115Z,11.31
2019-03-03T15:29:48.284Z,11.24
2019-03-03T15:32:16.761Z,11.17
2019-03-03T15:35:04.485Z,11.18
2019-03-03T15:37:33.198Z,11.31
2019-03-03T15:40:20.946Z,11.39
2019-03-03T15:43:08.644Z,11.40
2019-03-03T15:48:43.723Z,11.47
2019-03-03T15:54:47.104Z,11.26
2019-03-03T15:57:15.544Z,11.26
2019-03-03T16:00:03.332Z,11.09
2019-03-03T16:02:31.767Z,11.12
2019-03-03T16:05:00.312Z,11.10
2019-03-03T16:07:48.020Z,11.24
2019-03-03T16:10:56.339Z,11.17
2019-03-03T16:13:44.046Z,11.10
2019-03-03T16:19:19.071Z,11.14
2019-03-03T16:21:47.494Z,11.11
2019-03-03T16:24:35.343Z,11.19
2019-03-03T16:27:03.819Z,11.14
2019-03-03T16:29:32.283Z,11.07
2019-03-03T16:32:20.036Z,11.08
2019-03-03T16:34:48.448Z,11.13
2019-03-03T16:37:16.888Z,11.03
2019-03-03T16:40:25.382Z,10.99
2019-03-03T16:42:53.869Z,11.05
2019-03-03T16:46:02.202Z,11.15
2019-03-03T16:48:49.971Z,11.16
2019-03-03T16:51:18.390Z,11.11
2019-03-03T16:53:46.813Z,11.15
2019-03-03T16:56:34.326Z,11.06
2019-03-03T16:59:21.882Z,11.09
2019-03-03T17:01:50.326Z,11.03
2019-03-03T17:04:37.853Z,10.89
2019-03-03T17:09:40.786Z,10.78
2019-03-03T17:12:28.473Z,10.87
2019-03-03T17:15:16.042Z,10.89
2019-03-03T17:18:24.419Z,10.95
2019-03-03T17:21:11.961Z,10.86
2019-03-03T17:23:40.533Z,10.79
2019-03-03T17:26:48.889Z,10.72
2019-03-03T17:29:36.468Z,10.85
2019-03-03T17:32:24.184Z,10.87
2019-03-03T17:34:52.680Z,10.91
2019-03-03T17:37:40.397Z,10.96
2019-03-03T17:40:48.746Z,10.90
2019-03-03T17:43:17.197Z,10.85
2019-03-03T17:48:33.060Z,10.83
2019-03-03T17:53:48.947Z,10.83
2019-03-03T17:56:36.748Z,10.94
2019-03-03T17:59:45.109Z,10.92
2019-03-03T18:02:32.635Z,10.90
2019-03-03T18:05:20.197Z,10.82
2019-03-03T18:13:10.307Z,10.88
2019-03-03T18:15:57.968Z,10.89
2019-03-03T18:18:26.403Z,10.76
2019-03-03T18:20:54.827Z,10.93
2019-03-03T18:23:42.381Z,11.03
2019-03-03T18:28:58.319Z,11.04
2019-03-03T18:31:46.131Z,10.95
2019-03-03T18:34:54.525Z,10.92
2019-03-03T18:37:22.876Z,10.92
2019-03-03T18:39:51.356Z,11.15
2019-03-03T18:42:19.801Z,11.27
2019-03-03T18:45:28.177Z,11.19
2019-03-03T18:47:56.576Z,11.11
2019-03-03T18:51:05.031Z,11.04
2019-03-03T18:53:33.870Z,10.96
2019-03-03T18:56:02.395Z,10.92
2019-03-03T18:58:30.895Z,10.89
2019-03-03T19:01:18.555Z,10.86
2019-03-03T19:04:06.213Z,10.88
2019-03-03T19:06:35.042Z,10.90
2019-03-03T19:09:44.649Z,11.04
2019-03-03T19:12:13.049Z,11.06
2019-03-03T19:14:41.469Z,11.09
2019-03-03T19:17:29.115Z,10.97
2019-03-03T19:19:57.524Z,10.98
2019-03-03T19:22:45.173Z,11.19
2019-03-03T19:25:53.746Z,11.14
2019-03-03T19:28:22.144Z,11.05
2019-03-03T19:31:09.849Z,11.06
2019-03-03T19:33:58.078Z,11.15
2019-03-03T19:36:26.503Z,11.10
2019-03-03T19:42:08.191Z,11.08
2019-03-03T19:44:55.718Z,11.12
2019-03-03T19:48:04.033Z,11.10
2019-03-03T19:50:32.435Z,11.21
2019-03-03T19:53:20.086Z,11.16
2019-03-03T19:59:02.033Z,11.31
2019-03-03T20:04:24.225Z,11.26
2019-03-03T20:06:52.633Z,11.28
2019-03-03T20:10:00.948Z,11.16
2019-03-03T20:12:48.597Z,11.16
2019-03-03T20:15:36.428Z,11.09
2019-03-03T20:18:44.739Z,11.10
2019-03-03T20:23:47.464Z,11.23
2019-03-03T20:26:35.038Z,11.19
2019-03-03T20:32:11.612Z,11.33
2019-03-03T20:34:40.030Z,11.31
2019-03-03T20:37:08.473Z,11.40
2019-03-03T20:39:56.145Z,11.48
2019-03-03T20:42:24.579Z,11.57
2019-03-03T20:45:12.134Z,11.30
2019-03-03T20:47:40.554Z,11.26
2019-03-03T20:50:48.880Z,11.23
2019-03-03T20:53:36.523Z,11.33
2019-03-03T20:56:24.281Z,11.41
2019-03-03T21:01:40.121Z,11.39
2019-03-03T21:04:08.515Z,11.47
2019-03-03T21:06:56.248Z,11.41
2019-03-03T21:09:24.718Z,11.35
2019-03-03T21:12:12.257Z,11.36
2019-03-03T21:14:59.901Z,11.38
2019-03-03T21:17:28.310Z,11.53
2019-03-03T21:19:56.751Z,11.43
2019-03-03T21:22:25.242Z,11.36
2019-03-03T21:24:53.644Z,11.29
2019-03-03T21:27:22.056Z,11.35
2019-03-03T21:29:50.477Z,11.30
2019-03-03T21:32:45.221Z,11.23
2019-03-03T21:38:21.896Z,11.22
2019-03-03T21:40:50.342Z,11.18
2019-03-03T21:43:20.881Z,11.26
2019-03-03T21:45:48.867Z,11.33
2019-03-03T21:48:17.279Z,11.36
2019-03-03T21:51:04.936Z,11.38
2019-03-03T21:53:52.448Z,11.30
2019-03-03T21:56:20.882Z,11.30
2019-03-03T21:59:08.423Z,11.33
2019-03-03T22:01:36.828Z,11.29
2019-03-03T22:04:45.135Z,11.29
2019-03-03T22:07:13.958Z,11.31
2019-03-03T22:09:43.718Z,11.30
2019-03-03T22:12:12.179Z,11.34
2019-03-03T22:14:40.617Z,11.44
2019-03-03T22:17:28.388Z,11.38
2019-03-03T22:23:44.756Z,11.25
2019-03-03T22:26:13.165Z,11.12
2019-03-03T22:28:41.596Z,11.27
2019-03-03T22:31:10.046Z,11.17
2019-03-03T22:33:57.702Z,11.11
2019-03-03T22:36:26.103Z,11.24
2019-03-03T22:38:54.545Z,11.35
2019-03-03T22:41:42.217Z,11.30
2019-03-03T22:44:29.897Z,11.31
2019-03-03T22:46:58.345Z,11.32
2019-03-03T22:49:45.984Z,11.31
2019-03-03T22:52:33.546Z,11.28
2019-03-03T22:55:21.206Z,11.45
2019-03-03T22:58:08.891Z,11.52
2019-03-03T23:01:17.278Z,11.38
2019-03-03T23:04:24.267Z,11.46
2019-03-03T23:07:32.668Z,11.43
2019-03-03T23:10:40.994Z,11.46
2019-03-03T23:13:49.331Z,11.44
2019-03-03T23:16:57.642Z,11.52
2019-03-03T23:20:05.988Z,11.74
2019-03-03T23:23:12.994Z,11.69
2019-03-03T23:26:00.724Z,11.62
2019-03-03T23:28:48.376Z,11.60
2019-03-03T23:31:16.769Z,11.64
2019-03-03T23:36:19.473Z,11.58
2019-03-03T23:39:07.120Z,11.62
2019-03-03T23:41:54.628Z,11.75
2019-03-03T23:44:23.034Z,11.69
2019-03-03T23:46:51.436Z,11.70
2019-03-03T23:51:53.449Z,11.63
2019-03-03T23:54:21.857Z,11.59
2019-03-03T23:57:09.366Z,11.56
2019-03-03T23:59:37.767Z,11.57
